Time;durP1;ratioP1;P1;durP2;ratioP2;P2;SDS_P1;SDS_P2;PMS_P1;PMS_P2;Temp;Humidity;BMP_temperature;BMP_pressure;BME280_temperature;BME280_humidity;BME280_pressure;Samples;Min_cycle;Max_cycle;Signal;HPM_P1;HPM_P2
2022/12/27 00:02:07;;;;;;;7.08;4.65;;;;;;;4.42;68.03;100665.11;1742488;81;21443;-79
2022/12/27 00:04:34;;;;;;;7.62;4.80;;;;;;;4.42;67.97;100660.63;1741070;81;21235;-78
2022/12/27 00:07:00;;;;;;;7.42;5.08;;;;;;;4.43;67.98;100660.11;1738785;82;21004;-79
2022/12/27 00:09:27;;;;;;;6.58;4.47;;;;;;;4.43;68.00;100652.98;1731328;81;21505;-78
2022/12/27 00:11:53;;;;;;;6.17;4.40;;;;;;;4.42;68.00;100648.73;1740076;81;21095;-78
2022/12/27 00:14:20;;;;;;;7.92;4.83;;;;;;;4.41;67.97;100654.24;1738175;81;21082;-77
2022/12/27 00:16:47;;;;;;;7.90;4.65;;;;;;;4.41;67.97;100656.38;1732448;81;21181;-78
2022/12/27 00:19:14;;;;;;;6.10;4.25;;;;;;;4.45;67.97;100653.59;1705281;82;21067;-78
2022/12/27 00:21:41;;;;;;;6.55;4.20;;;;;;;4.49;67.99;100668.52;1737086;81;21565;-78
2022/12/27 00:24:09;;;;;;;6.83;4.08;;;;;;;4.48;67.98;100666.10;1700990;82;21074;-77
2022/12/27 00:26:37;;;;;;;7.70;4.92;;;;;;;4.46;68.00;100659.69;1738701;81;21021;-78
2022/12/27 00:29:04;;;;;;;6.85;4.40;;;;;;;4.49;67.99;100663.75;1738523;81;21204;-76
2022/12/27 00:31:31;;;;;;;5.65;3.90;;;;;;;4.51;67.98;100649.77;1738841;81;21039;-76
2022/12/27 00:34:01;;;;;;;6.30;4.25;;;;;;;4.53;67.97;100646.41;1737111;80;21000;-77
2022/12/27 00:36:30;;;;;;;6.75;4.20;;;;;;;4.55;67.96;100643.86;1739745;82;21063;-77
2022/12/27 00:38:57;;;;;;;6.67;4.05;;;;;;;4.57;68.03;100636.50;1737674;81;21058;-77
2022/12/27 00:41:25;;;;;;;6.92;4.12;;;;;;;4.59;68.04;100637.63;1727251;81;21259;-77
2022/12/27 00:43:51;;;;;;;5.95;4.03;;;;;;;4.60;67.97;100629.98;1742424;80;20992;-77
2022/12/27 00:46:19;;;;;;;5.90;3.90;;;;;;;4.59;67.92;100619.91;1741641;82;21560;-77
2022/12/27 00:48:45;;;;;;;6.83;4.47;;;;;;;4.59;67.85;100613.81;1736262;81;20984;-79
2022/12/27 00:51:16;;;;;;;6.72;3.98;;;;;;;4.58;67.86;100609.05;1737107;82;21061;-79
2022/12/27 00:53:43;;;;;;;6.65;4.00;;;;;;;4.56;67.98;100605.79;1738160;81;21438;-78
2022/12/27 00:56:14;;;;;;;7.10;4.47;;;;;;;4.57;68.07;100607.40;1740183;81;21059;-79
2022/12/27 00:58:42;;;;;;;6.85;4.60;;;;;;;4.59;68.07;100603.23;1733901;81;20996;-77
2022/12/27 01:01:15;;;;;;;7.03;4.17;;;;;;;4.57;68.04;100602.11;1736274;81;21078;-77
2022/12/27 01:03:43;;;;;;;6.20;4.10;;;;;;;4.59;68.07;100598.75;1741206;81;21082;-77
2022/12/27 01:06:14;;;;;;;6.90;4.90;;;;;;;4.60;68.14;100595.59;1736603;81;21098;-78
2022/12/27 01:08:43;;;;;;;6.72;4.45;;;;;;;4.59;68.21;100604.04;1742259;82;21059;-77
2022/12/27 01:11:10;;;;;;;7.05;4.45;;;;;;;4.59;68.26;100600.59;1740845;81;21598;-77
2022/12/27 01:13:37;;;;;;;7.28;4.72;;;;;;;4.61;68.27;100590.61;1737670;82;21023;-78
2022/12/27 01:16:10;;;;;;;6.28;4.08;;;;;;;4.61;68.27;100600.67;1734046;81;21114;-78
2022/12/27 01:18:37;;;;;;;8.45;4.85;;;;;;;4.61;68.29;100590.09;1742761;81;21246;-77
2022/12/27 01:21:07;;;;;;;7.20;4.37;;;;;;;4.61;68.37;100596.70;1740072;81;21066;-77
2022/12/27 01:23:35;;;;;;;7.55;5.00;;;;;;;4.62;68.40;100589.58;1740346;81;21605;-77
2022/12/27 01:26:04;;;;;;;6.47;4.40;;;;;;;4.62;68.44;100588.25;1739950;81;21055;-77
2022/12/27 01:28:31;;;;;;;8.83;5.08;;;;;;;4.59;68.44;100579.42;1727863;81;21142;-77
2022/12/27 01:30:58;;;;;;;7.80;4.95;;;;;;;4.60;68.47;100585.00;1711501;81;21098;-76
2022/12/27 01:33:25;;;;;;;7.65;5.00;;;;;;;4.60;68.54;100586.33;1710793;82;21110;-77
2022/12/27 01:35:51;;;;;;;7.40;4.97;;;;;;;4.61;68.62;100581.35;1741721;81;21442;-77
2022/12/27 01:38:18;;;;;;;7.20;5.20;;;;;;;4.62;68.72;100580.31;1752432;80;21047;-77
2022/12/27 01:40:45;;;;;;;7.78;5.17;;;;;;;4.62;68.73;100572.38;1734228;82;21040;-79
2022/12/27 01:43:17;;;;;;;7.55;5.35;;;;;;;4.63;68.77;100570.02;1732557;82;21176;-77
2022/12/27 01:45:44;;;;;;;7.50;5.42;;;;;;;4.65;68.77;100560.05;1745685;81;21032;-76
2022/12/27 01:48:18;;;;;;;8.53;5.60;;;;;;;4.68;68.83;100544.54;1745251;81;20996;-78
2022/12/27 01:50:52;;;;;;;8.20;5.62;;;;;;;4.70;68.87;100545.63;1734289;82;21107;-77
2022/12/27 01:53:22;;;;;;;8.35;5.85;;;;;;;4.72;68.92;100533.00;1735321;81;21032;-77
2022/12/27 01:56:04;;;;;;;8.58;5.72;;;;;;;4.75;68.96;100529.13;1739751;82;21049;-78
2022/12/27 01:58:51;;;;;;;8.88;5.60;;;;;;;4.75;68.96;100524.63;1739397;81;21593;-78
2022/12/27 02:01:21;;;;;;;8.90;6.00;;;;;;;4.79;69.01;100519.19;1721824;82;21126;-78
2022/12/27 02:03:58;;;;;;;8.50;5.95;;;;;;;4.84;69.14;100515.38;1733940;81;21024;-78
2022/12/27 02:06:26;;;;;;;10.18;6.47;;;;;;;4.91;69.16;100506.85;1738520;81;21043;-78
2022/12/27 02:09:08;;;;;;;9.50;5.97;;;;;;;4.94;69.09;100504.28;1739929;82;21232;-78
2022/12/27 02:11:51;;;;;;;9.30;6.37;;;;;;;4.97;69.05;100494.58;1725970;81;27128;-77
2022/12/27 02:14:35;;;;;;;9.05;6.30;;;;;;;4.98;69.08;100497.52;1736940;82;21158;-77
2022/12/27 02:17:09;;;;;;;8.68;6.33;;;;;;;5.02;69.14;100484.64;1740019;82;21060;-77
2022/12/27 02:19:50;;;;;;;9.95;6.25;;;;;;;5.05;69.08;100495.59;1736860;82;21007;-78
2022/12/27 02:26:16;;;;;;;9.33;6.28;;;;;;;5.03;68.93;100482.28;1714624;81;21481;-78
2022/12/27 02:29:09;;;;;;;11.93;7.53;;;;;;;5.02;68.97;100476.70;1670887;84;21028;-78
2022/12/27 02:32:02;;;;;;;11.55;7.53;;;;;;;5.03;69.14;100485.73;1714319;81;21069;-78
2022/12/27 02:34:37;;;;;;;10.18;7.25;;;;;;;5.06;69.17;100480.00;1738650;82;21078;-79
2022/12/27 02:37:08;;;;;;;9.85;6.97;;;;;;;5.06;69.15;100472.05;1726516;81;21156;-79
2022/12/27 02:39:38;;;;;;;7.58;4.97;;;;;;;5.09;69.12;100466.84;1736421;81;21553;-79
2022/12/27 02:53:02;;;;;;;10.98;7.28;;;;;;;5.04;69.07;100445.02;1734211;82;21012;-80
2022/12/27 02:53:11;;;;;;;9.78;6.92;;;;;;;5.03;69.19;100441.25;1742309;81;21043;-79
2022/12/27 02:59:13;;;;;;;10.08;7.33;;;;;;;5.04;69.41;100433.10;1752189;81;21028;-80
2022/12/27 03:05:04;;;;;;;10.75;7.12;;;;;;;5.09;69.44;100425.28;1736735;81;21192;-77
2022/12/27 03:07:52;;;;;;;10.95;7.10;;;;;;;5.09;69.37;100423.16;1742493;80;20936;-78
2022/12/27 03:16:54;;;;;;;10.90;7.08;;;;;;;5.15;69.60;100395.27;1741562;81;21055;-79
2022/12/27 03:25:27;;;;;;;10.28;7.22;;;;;;;5.12;69.57;100390.42;1724463;82;21015;-80
2022/12/27 03:33:47;;;;;;;10.00;6.70;;;;;;;5.13;69.76;100383.28;1735414;82;21234;-79
2022/12/27 03:39:20;;;;;;;10.35;7.28;;;;;;;5.14;69.75;100386.23;1735705;81;21008;-78
2022/12/27 03:44:38;;;;;;;10.68;7.37;;;;;;;5.17;69.90;100377.84;1713025;82;21503;-80
2022/12/27 03:47:25;;;;;;;10.25;7.17;;;;;;;5.17;69.88;100375.20;1757783;81;21142;-80
2022/12/27 03:50:08;;;;;;;9.50;6.50;;;;;;;5.20;69.92;100375.23;1738022;81;21079;-80
2022/12/27 03:52:46;;;;;;;9.40;6.83;;;;;;;5.18;69.90;100368.34;1742375;81;21096;-79
2022/12/27 03:55:12;;;;;;;8.88;6.50;;;;;;;5.16;70.01;100364.30;1712883;81;21063;-78
2022/12/27 03:57:40;;;;;;;10.30;7.47;;;;;;;5.14;70.04;100358.44;1734301;81;21059;-79
2022/12/27 04:00:09;;;;;;;11.90;7.37;;;;;;;5.16;70.13;100370.91;1736374;82;21104;-80
2022/12/27 04:02:43;;;;;;;8.50;6.12;;;;;;;5.14;70.12;100361.89;1706904;81;21055;-79
2022/12/27 04:05:10;;;;;;;8.88;6.62;;;;;;;5.11;70.20;100361.02;1747396;81;21471;-79
2022/12/27 04:07:37;;;;;;;9.88;7.28;;;;;;;5.13;70.36;100359.45;1733193;81;21123;-80
2022/12/27 04:34:59;;;;;;;11.50;7.80;;;;;;;5.29;70.78;100308.48;1726045;81;21027;-81
2022/12/27 04:37:26;;;;;;;9.98;7.28;;;;;;;5.30;70.86;100296.89;1742124;81;21099;-80
2022/12/27 04:56:29;;;;;;;11.08;7.53;;;;;;;5.29;71.14;100301.87;1720214;81;21598;-80
2022/12/27 05:04:27;;;;;;;10.65;7.55;;;;;;;5.28;71.43;100300.27;1729980;81;20999;-79
2022/12/27 05:06:54;;;;;;;10.58;7.75;;;;;;;5.31;71.41;100283.92;1712896;83;21215;-80
2022/12/27 05:14:48;;;;;;;10.95;7.87;;;;;;;5.43;71.50;100261.44;1648924;85;21579;-79
2022/12/27 05:17:14;;;;;;;11.63;8.45;;;;;;;5.49;71.51;100268.95;1649569;85;20983;-80
2022/12/27 05:19:41;;;;;;;10.25;7.30;;;;;;;5.49;71.46;100272.41;1675985;81;21558;-81
2022/12/27 05:27:39;;;;;;;12.50;8.35;;;;;;;5.59;71.46;100281.94;1740831;82;21023;-80
2022/12/27 05:30:09;;;;;;;12.05;8.30;;;;;;;5.61;71.42;100289.64;1740210;81;20995;-78
2022/12/27 05:32:37;;;;;;;10.58;7.58;;;;;;;5.59;71.37;100287.73;1710999;81;22149;-80
2022/12/27 05:35:06;;;;;;;12.53;8.73;;;;;;;5.60;71.42;100276.12;1738229;81;20964;-79
2022/12/27 05:37:33;;;;;;;11.55;8.30;;;;;;;5.63;71.46;100278.30;1739170;82;21008;-79
2022/12/27 05:40:00;;;;;;;12.20;8.73;;;;;;;5.69;71.51;100277.87;1738637;82;21059;-79
2022/12/27 05:42:27;;;;;;;11.83;8.53;;;;;;;5.71;71.50;100277.14;1739664;81;21048;-79
2022/12/27 05:44:53;;;;;;;11.95;8.73;;;;;;;5.72;71.44;100280.87;1749271;81;21305;-80
2022/12/27 05:47:20;;;;;;;12.85;9.50;;;;;;;5.72;71.33;100288.02;1736107;81;21093;-79
2022/12/27 05:49:47;;;;;;;12.33;8.95;;;;;;;5.74;71.37;100284.63;1741195;82;21058;-79
2022/12/27 05:52:15;;;;;;;14.03;9.78;;;;;;;5.76;71.36;100285.19;1738984;81;20979;-78
2022/12/27 05:54:42;;;;;;;11.93;9.15;;;;;;;5.76;71.36;100282.05;1741708;81;20996;-78
2022/12/27 05:57:09;;;;;;;14.10;10.23;;;;;;;5.80;71.39;100283.19;1733600;80;21693;-79
2022/12/27 05:59:35;;;;;;;13.53;9.88;;;;;;;5.83;71.31;100282.72;1725606;81;21080;-78
2022/12/27 06:02:02;;;;;;;12.95;9.38;;;;;;;5.87;71.30;100279.89;1738305;81;21008;-78
2022/12/27 06:04:29;;;;;;;15.48;10.53;;;;;;;5.89;71.31;100277.02;1736312;82;21020;-79
2022/12/27 06:06:58;;;;;;;14.13;9.68;;;;;;;5.86;71.36;100276.95;1730634;81;21022;-78
2022/12/27 06:09:25;;;;;;;15.23;10.58;;;;;;;5.88;71.36;100275.39;1732418;82;21266;-79
2022/12/27 06:11:52;;;;;;;14.33;10.32;;;;;;;5.88;71.36;100273.54;1731303;81;22328;-78
2022/12/27 06:26:01;;;;;;;13.40;10.00;;;;;;;6.50;71.02;100262.34;1794383;79;22799;-68
2022/12/27 06:28:28;;;;;;;13.80;10.40;;;;;;;6.50;70.83;100262.34;1731938;82;21271;-68
2022/12/27 06:30:54;;;;;;;14.83;11.18;;;;;;;6.48;70.83;100259.64;1748868;80;21250;-68
2022/12/27 06:33:21;;;;;;;16.62;11.65;;;;;;;6.42;70.79;100256.10;1713936;82;21046;-69
2022/12/27 06:35:48;;;;;;;15.83;11.90;;;;;;;6.36;70.80;100258.89;1739595;80;20982;-69
2022/12/27 06:38:15;;;;;;;17.45;11.90;;;;;;;6.34;70.90;100265.22;1744731;80;20988;-70
2022/12/27 06:40:42;;;;;;;17.02;12.68;;;;;;;6.30;70.87;100268.59;1758290;80;21050;-69
2022/12/27 06:43:09;;;;;;;16.73;11.68;;;;;;;6.29;70.96;100262.48;1749983;82;21753;-68
2022/12/27 06:45:37;;;;;;;17.07;12.50;;;;;;;6.31;71.03;100271.52;1744539;80;21486;-69
2022/12/27 06:48:04;;;;;;;18.07;13.32;;;;;;;6.25;71.00;100271.97;1741620;82;20939;-68
2022/12/27 06:50:31;;;;;;;17.92;12.00;;;;;;;6.20;71.21;100266.55;1704328;83;21544;-68
2022/12/27 06:52:59;;;;;;;18.23;12.00;;;;;;;6.19;71.36;100268.12;1720638;83;21094;-69
2022/12/27 06:55:26;;;;;;;15.28;11.55;;;;;;;6.17;71.41;100268.86;1736878;82;21908;-68
2022/12/27 06:57:53;;;;;;;16.85;12.18;;;;;;;6.12;71.51;100264.27;1750019;82;20996;-68
2022/12/27 07:00:20;;;;;;;19.52;13.62;;;;;;;6.05;71.78;100267.55;1741573;80;20999;-68
2022/12/27 07:02:47;;;;;;;19.23;13.95;;;;;;;6.02;72.02;100265.36;1770084;80;20991;-69
2022/12/27 07:05:14;;;;;;;19.05;13.03;;;;;;;6.02;72.23;100260.06;1738762;80;21069;-68
2022/12/27 07:07:40;;;;;;;21.12;14.43;;;;;;;6.02;72.51;100267.52;1751314;80;21148;-68
2022/12/27 07:10:09;;;;;;;18.50;13.10;;;;;;;6.01;72.63;100259.27;1741597;82;20949;-69
2022/12/27 07:12:36;;;;;;;21.80;13.90;;;;;;;6.04;72.79;100269.40;1743134;80;21019;-69
2022/12/27 07:15:05;;;;;;;24.02;15.88;;;;;;;6.04;72.94;100265.95;1738823;82;20997;-69
2022/12/27 07:17:35;;;;;;;20.77;15.28;;;;;;;6.06;73.12;100266.53;1736360;82;21490;-71
2022/12/27 07:20:04;;;;;;;21.10;13.53;;;;;;;6.07;73.26;100257.00;1725967;82;21220;-69
2022/12/27 07:22:31;;;;;;;24.07;16.02;;;;;;;6.10;73.51;100252.56;1732629;82;21090;-69
2022/12/27 07:24:58;;;;;;;21.97;14.18;;;;;;;6.11;73.65;100243.55;1716305;82;21013;-69
2022/12/27 07:27:25;;;;;;;24.15;15.23;;;;;;;6.16;73.84;100244.20;1713920;82;21645;-69
2022/12/27 07:29:52;;;;;;;23.12;14.83;;;;;;;6.21;73.96;100240.30;1737664;82;21000;-68
2022/12/27 07:32:19;;;;;;;22.10;16.17;;;;;;;6.26;73.97;100240.94;1716217;83;22200;-68
2022/12/27 07:34:49;;;;;;;26.51;17.36;;;;;;;6.26;74.00;100240.41;1641407;82;9999884;-68
2022/12/27 07:37:16;;;;;;;23.20;15.57;;;;;;;6.27;74.04;100232.73;1350130;82;10000429;-69
2022/12/27 07:39:45;;;;;;;24.80;17.52;;;;;;;6.33;74.25;100233.64;1705470;83;21490;-69
2022/12/27 07:42:12;;;;;;;25.77;16.90;;;;;;;6.39;74.30;100230.05;1697077;83;21445;-69
2022/12/27 07:44:38;;;;;;;25.05;16.67;;;;;;;6.45;74.27;100229.59;1723047;82;21138;-69
2022/12/27 07:47:05;;;;;;;23.22;15.40;;;;;;;6.47;74.22;100237.61;1710182;83;21047;-69
2022/12/27 07:49:32;;;;;;;26.07;17.23;;;;;;;6.43;74.28;100237.81;1711493;82;21059;-69
2022/12/27 07:51:58;;;;;;;23.98;15.83;;;;;;;6.39;74.30;100233.22;1734022;82;21118;-69
2022/12/27 07:54:25;;;;;;;23.73;15.43;;;;;;;6.42;74.46;100239.38;1712925;82;21370;-68
2022/12/27 07:56:52;;;;;;;23.47;15.55;;;;;;;6.46;74.57;100239.98;1706221;83;21173;-69
2022/12/27 07:59:21;;;;;;;23.98;17.00;;;;;;;6.49;74.58;100246.15;1720387;82;21095;-69
2022/12/27 08:02:02;;;;;;;26.23;17.50;;;;;;;6.50;74.66;100253.05;1739798;82;21015;-68
2022/12/27 08:04:29;;;;;;;24.98;16.45;;;;;;;6.58;74.79;100250.53;1718052;82;21062;-68
2022/12/27 08:07:03;;;;;;;26.05;17.48;;;;;;;6.66;74.80;100238.75;1732052;82;21141;-70
2022/12/27 08:09:33;;;;;;;25.43;16.15;;;;;;;6.69;74.79;100240.41;1717296;81;21576;-68
2022/12/27 08:12:00;;;;;;;23.87;16.12;;;;;;;6.71;74.77;100243.63;1708803;83;21043;-68
2022/12/27 08:14:28;;;;;;;27.25;18.20;;;;;;;6.74;74.77;100244.98;1729007;82;21141;-68
2022/12/27 08:17:00;;;;;;;28.73;18.70;;;;;;;6.75;74.81;100239.45;1722752;82;21099;-69
2022/12/27 08:19:27;;;;;;;28.60;17.90;;;;;;;6.80;74.90;100237.39;1710763;82;21162;-69
2022/12/27 08:21:53;;;;;;;27.94;17.76;;;;;;;6.90;75.00;100242.88;1485403;82;10000080;-69
2022/12/27 08:24:20;;;;;;;28.83;18.60;;;;;;;7.00;74.99;100242.23;1735205;82;26817;-69
2022/12/27 08:26:47;;;;;;;27.00;17.77;;;;;;;7.09;74.91;100242.66;1738155;82;21137;-68
2022/12/27 08:29:14;;;;;;;28.98;18.48;;;;;;;7.16;74.88;100238.78;1725866;82;21144;-68
2022/12/27 08:31:41;;;;;;;25.52;17.02;;;;;;;7.21;74.73;100232.77;1714609;82;21099;-68
2022/12/27 08:34:07;;;;;;;29.07;18.70;;;;;;;7.27;74.69;100233.09;1736993;82;21545;-69
2022/12/27 08:36:34;;;;;;;28.00;17.92;;;;;;;7.30;74.64;100232.61;1730934;82;21192;-69
2022/12/27 08:39:01;;;;;;;27.67;17.70;;;;;;;7.39;74.65;100226.38;1701386;82;21581;-69
2022/12/27 08:41:28;;;;;;;32.70;21.00;;;;;;;7.45;74.44;100221.41;1721388;82;21059;-69
2022/12/27 08:43:54;;;;;;;29.18;18.87;;;;;;;7.44;74.41;100230.44;1717614;82;21110;-69
2022/12/27 08:46:21;;;;;;;28.80;19.65;;;;;;;7.44;74.31;100226.45;1719669;81;21420;-70
2022/12/27 08:48:48;;;;;;;31.87;21.15;;;;;;;7.40;74.16;100223.98;1710601;82;21631;-69
2022/12/27 08:51:14;;;;;;;31.37;20.40;;;;;;;7.33;74.13;100216.71;1707606;82;21167;-70
2022/12/27 08:53:41;;;;;;;32.17;20.57;;;;;;;7.27;74.27;100217.16;1713527;83;21044;-69
2022/12/27 08:56:07;;;;;;;29.35;18.55;;;;;;;7.22;74.39;100213.91;1709007;83;20976;-69
2022/12/27 08:58:34;;;;;;;30.45;18.85;;;;;;;7.29;74.58;100209.23;1724087;81;21495;-70
2022/12/27 09:01:06;;;;;;;33.95;20.55;;;;;;;7.38;74.69;100204.31;1732628;81;21601;-69
2022/12/27 09:03:33;;;;;;;32.70;20.60;;;;;;;7.48;74.75;100204.98;1691921;83;21989;-70
2022/12/27 09:06:17;;;;;;;30.72;19.87;;;;;;;7.58;74.86;100206.45;1734448;82;21510;-69
2022/12/27 09:08:45;;;;;;;31.50;19.67;;;;;;;7.68;74.76;100206.58;1731962;81;21067;-68
2022/12/27 09:11:16;;;;;;;27.75;18.75;;;;;;;7.80;74.60;100202.98;1725486;80;21098;-69
2022/12/27 09:13:42;;;;;;;31.80;20.00;;;;;;;7.86;74.49;100199.34;1722706;80;21633;-68
2022/12/27 09:16:16;;;;;;;33.15;20.23;;;;;;;7.93;74.40;100193.31;1757761;80;21142;-69
2022/12/27 09:18:43;;;;;;;32.05;20.32;;;;;;;7.99;74.30;100183.02;1709368;83;21003;-69
2022/12/27 09:21:12;;;;;;;31.00;19.40;;;;;;;8.09;74.14;100183.13;1694863;84;21560;-68
2022/12/27 09:23:40;;;;;;;30.95;19.42;;;;;;;8.17;74.01;100177.91;1719385;83;21110;-69
2022/12/27 09:26:09;;;;;;;30.82;20.27;;;;;;;8.28;73.87;100177.48;1710702;83;21090;-69
2022/12/27 09:28:36;;;;;;;31.93;20.60;;;;;;;8.36;73.81;100168.53;1718174;83;21161;-69
2022/12/27 09:31:04;;;;;;;29.65;19.70;;;;;;;8.47;73.70;100172.11;1723651;83;21602;-70
2022/12/27 09:33:31;;;;;;;28.23;19.42;;;;;;;8.54;73.50;100175.36;1724560;83;21067;-70
2022/12/27 09:36:19;;;;;;;31.15;19.40;;;;;;;8.61;73.28;100179.95;1713843;83;21000;-70
2022/12/27 09:38:46;;;;;;;29.82;19.30;;;;;;;8.66;73.08;100173.88;1695908;84;21110;-70
2022/12/27 09:42:10;;;;;;;31.25;19.52;;;;;;;8.70;72.88;100178.97;1713271;82;21814;-69
2022/12/27 09:44:49;;;;;;;30.40;18.67;;;;;;;8.74;72.66;100179.27;1717835;83;21471;-70
2022/12/27 09:47:36;;;;;;;28.92;18.77;;;;;;;8.79;72.44;100168.66;1705801;83;21096;-68
2022/12/27 09:50:16;;;;;;;29.85;19.55;;;;;;;8.86;72.26;100169.25;1709395;83;21016;-69
2022/12/27 09:52:53;;;;;;;31.48;20.30;;;;;;;8.90;72.09;100157.02;1725527;83;21031;-70
2022/12/27 09:55:25;;;;;;;28.60;18.87;;;;;;;8.92;71.94;100154.38;1724104;82;21207;-69
2022/12/27 09:57:51;;;;;;;28.75;17.52;;;;;;;8.91;71.80;100152.75;1721344;81;21031;-69
2022/12/27 10:00:22;;;;;;;27.62;18.40;;;;;;;8.90;71.69;100161.81;1707016;81;21070;-69
2022/12/27 10:02:50;;;;;;;27.17;18.12;;;;;;;8.88;71.50;100157.80;1699074;83;21197;-70
2022/12/27 10:05:20;;;;;;;30.95;20.45;;;;;;;8.89;71.60;100156.75;1730695;82;20964;-68
2022/12/27 10:08:01;;;;;;;31.55;19.95;;;;;;;8.93;71.70;100151.19;1712294;82;21141;-68
2022/12/27 10:11:02;;;;;;;25.88;17.95;;;;;;;8.95;71.72;100149.58;1695773;83;21011;-69
2022/12/27 10:13:44;;;;;;;25.45;16.57;;;;;;;8.97;71.62;100152.27;1695937;84;21054;-69
2022/12/27 10:16:40;;;;;;;29.50;18.80;;;;;;;8.91;71.49;100156.75;1713324;82;21039;-68
2022/12/27 10:19:44;;;;;;;30.00;19.52;;;;;;;8.84;71.55;100153.51;1714479;83;20992;-69
2022/12/27 10:22:39;;;;;;;30.75;20.75;;;;;;;8.79;71.67;100151.36;1722157;82;21215;-69
2022/12/27 10:25:13;;;;;;;31.05;19.70;;;;;;;8.80;71.84;100154.28;1688794;83;21114;-70
2022/12/27 10:27:41;;;;;;;26.93;17.85;;;;;;;8.72;71.89;100144.91;1723627;82;21056;-69
2022/12/27 10:30:18;;;;;;;33.08;20.55;;;;;;;8.69;71.92;100155.53;1736956;82;21020;-69
2022/12/27 10:32:46;;;;;;;29.42;19.90;;;;;;;8.66;72.18;100153.38;1717352;82;21546;-68
2022/12/27 10:35:16;;;;;;;31.87;20.27;;;;;;;8.64;72.32;100152.82;1713502;83;21106;-69
2022/12/27 10:37:44;;;;;;;29.42;19.32;;;;;;;8.56;72.49;100146.64;1698558;82;22260;-68
2022/12/27 10:40:30;;;;;;;28.60;18.80;;;;;;;8.54;72.83;100146.08;1719927;83;21066;-68
2022/12/27 10:43:07;;;;;;;32.80;20.50;;;;;;;8.55;72.97;100144.22;1714462;82;21613;-68
2022/12/27 10:45:38;;;;;;;31.60;19.75;;;;;;;8.59;73.23;100149.34;1682255;82;21586;-68
2022/12/27 10:48:16;;;;;;;31.82;19.65;;;;;;;8.59;73.26;100152.80;1705699;83;21158;-68
2022/12/27 10:50:56;;;;;;;30.35;19.15;;;;;;;8.56;73.30;100155.96;1693923;81;21546;-68
2022/12/27 10:53:34;;;;;;;32.30;18.25;;;;;;;8.56;73.49;100147.97;1670088;83;21035;-69
2022/12/27 10:56:14;;;;;;;32.65;20.88;;;;;;;8.57;73.58;100149.57;1725573;82;20984;-69
2022/12/27 10:58:47;;;;;;;29.35;18.98;;;;;;;8.58;73.73;100147.70;1714087;82;21023;-69
2022/12/27 11:01:25;;;;;;;31.60;20.08;;;;;;;8.64;73.76;100146.16;1709551;83;21271;-69
2022/12/27 11:04:09;;;;;;;30.70;20.75;;;;;;;8.66;73.72;100144.06;1709949;82;21074;-69
2022/12/27 11:06:37;;;;;;;32.85;20.55;;;;;;;8.73;73.90;100131.87;1708919;82;21109;-68
2022/12/27 11:09:34;;;;;;;30.57;19.75;;;;;;;8.79;73.90;100137.51;1712585;81;21097;-68
2022/12/27 11:12:24;;;;;;;30.50;19.00;;;;;;;8.83;73.83;100136.47;1707718;83;21077;-69
2022/12/27 11:15:16;;;;;;;30.20;19.50;;;;;;;8.88;73.91;100144.48;1719732;82;21901;-68
2022/12/27 11:17:53;;;;;;;31.05;20.80;;;;;;;8.98;73.95;100141.88;1718423;83;21135;-69
2022/12/27 11:20:39;;;;;;;33.78;20.40;;;;;;;9.08;73.93;100144.64;1711869;81;21056;-69
2022/12/27 11:23:10;;;;;;;30.62;19.37;;;;;;;9.14;73.83;100139.59;1713671;83;21015;-68
2022/12/27 11:25:54;;;;;;;;;;;;;;;9.18;73.61;100139.08;1717859;83;21196;-68
2022/12/27 11:28:44;;;;;;;33.60;20.30;;;;;;;9.16;73.40;100133.48;1705801;82;21160;-67
2022/12/27 11:31:14;;;;;;;34.95;21.17;;;;;;;9.16;73.36;100120.70;1708208;81;21121;-67
2022/12/27 11:33:52;;;;;;;35.33;21.33;;;;;;;9.18;73.34;100117.25;1699768;81;21663;-68
2022/12/27 11:36:31;;;;;;;33.42;21.33;;;;;;;9.23;73.40;100113.80;1701928;83;21016;-69
2022/12/27 11:38:59;;;;;;;31.60;19.55;;;;;;;9.30;73.31;100110.38;1710513;81;21459;-69
2022/12/27 11:41:48;;;;;;;32.95;19.82;;;;;;;9.29;73.12;100104.78;1719310;81;22054;-69
2022/12/27 11:44:22;;;;;;;31.85;20.85;;;;;;;9.27;73.16;100108.22;1715148;83;21000;-66
2022/12/27 11:47:03;;;;;;;36.48;21.52;;;;;;;9.24;73.05;100106.87;1703378;83;21029;-68
2022/12/27 11:49:36;;;;;;;34.75;21.35;;;;;;;9.20;73.14;100108.98;1716671;83;21055;-68
2022/12/27 11:52:41;;;;;;;33.65;20.08;;;;;;;9.20;73.21;100108.45;1715222;83;21051;-69
2022/12/27 11:55:19;;;;;;;39.30;20.25;;;;;;;9.23;73.25;100109.27;1720147;82;21261;-68
2022/12/27 11:58:11;;;;;;;33.88;21.33;;;;;;;9.24;73.23;100106.87;1710098;83;21094;-70
2022/12/27 12:01:01;;;;;;;32.33;20.12;;;;;;;9.25;73.25;100115.69;1711113;83;21055;-69
2022/12/27 12:03:56;;;;;;;34.53;19.90;;;;;;;9.26;73.28;100118.62;1706009;81;21565;-68
2022/12/27 12:06:46;;;;;;;35.58;21.30;;;;;;;9.27;73.22;100116.22;1695044;83;21535;-68
2022/12/27 12:09:36;;;;;;;34.48;19.82;;;;;;;9.28;73.32;100117.81;1723311;83;21285;-68
2022/12/27 12:12:26;;;;;;;32.78;19.90;;;;;;;9.27;73.26;100111.68;1706387;83;21012;-69
2022/12/27 12:15:24;;;;;;;32.67;19.35;;;;;;;9.19;73.28;100114.85;1718589;82;21547;-68
2022/12/27 12:17:57;;;;;;;32.28;19.75;;;;;;;9.11;73.27;100116.16;1749930;80;21036;-69
2022/12/27 12:20:42;;;;;;;;;;;;;;;9.02;73.54;100108.36;1751040;80;21000;-69
2022/12/27 12:23:28;;;;;;;39.15;21.05;;;;;;;9.05;73.76;100106.52;1734743;80;21263;-68
2022/12/27 12:26:19;;;;;;;37.20;20.25;;;;;;;9.06;73.85;100102.79;1707647;82;21060;-68
2022/12/27 12:29:24;;;;;;;35.83;20.80;;;;;;;9.09;73.97;100102.27;1740216;80;21044;-68
2022/12/27 12:32:15;;;;;;;35.38;20.55;;;;;;;9.11;74.02;100104.67;1712979;81;21056;-69
2022/12/27 12:34:58;;;;;;;37.42;21.00;;;;;;;9.13;74.10;100099.36;1719591;81;21456;-68
2022/12/27 12:37:33;;;;;;;37.38;21.10;;;;;;;9.18;74.15;100109.77;1742386;82;22682;-68
2022/12/27 12:40:25;;;;;;;38.45;21.07;;;;;;;9.19;74.13;100112.72;1714161;81;21147;-68
2022/12/27 12:43:19;;;;;;;36.08;21.57;;;;;;;9.14;74.00;100107.61;1724349;82;21119;-68
2022/12/27 12:45:59;;;;;;;35.52;21.00;;;;;;;9.07;74.08;100107.05;1709108;82;21537;-68
2022/12/27 12:48:47;;;;;;;34.48;21.15;;;;;;;9.04;74.21;100102.23;1723798;81;21106;-68
2022/12/27 12:52:08;;;;;;;38.08;21.97;;;;;;;9.05;74.31;100098.53;1734583;81;21144;-68
2022/12/27 12:54:40;;;;;;;35.80;21.68;;;;;;;9.04;74.36;100098.23;1744941;80;21000;-68
2022/12/27 12:57:15;;;;;;;36.60;21.12;;;;;;;8.97;74.44;100099.53;1680093;81;21063;-69
2022/12/27 13:00:24;;;;;;;40.65;22.42;;;;;;;8.93;74.66;100104.58;1732043;81;21483;-70
2022/12/27 13:03:37;;;;;;;37.88;21.60;;;;;;;8.91;74.74;100096.82;1707329;82;21118;-69
2022/12/27 13:06:18;;;;;;;36.65;21.20;;;;;;;8.86;74.97;100114.66;1698870;83;21849;-68
2022/12/27 13:09:16;;;;;;;38.50;20.82;;;;;;;8.76;75.20;100106.59;1700705;82;21059;-68
2022/12/27 13:12:02;;;;;;;34.90;20.70;;;;;;;8.72;75.39;100106.81;1703688;83;21078;-69
2022/12/27 13:15:08;;;;;;;36.30;21.25;;;;;;;8.70;75.58;100105.75;1698329;82;21103;-68
2022/12/27 13:18:15;;;;;;;34.25;20.48;;;;;;;8.65;75.74;100114.52;1737058;81;21067;-69
2022/12/27 13:21:09;;;;;;;40.50;22.32;;;;;;;8.61;75.97;100119.25;1698116;83;21184;-68
2022/12/27 13:24:04;;;;;;;39.25;22.27;;;;;;;8.58;76.24;100125.08;1735976;82;21003;-68
2022/12/27 13:26:58;;;;;;;39.27;22.20;;;;;;;8.55;76.44;100121.59;1721612;82;20965;-68
2022/12/27 13:29:45;;;;;;;35.13;20.05;;;;;;;8.51;76.70;100125.30;1685258;82;21055;-68
2022/12/27 13:32:26;;;;;;;36.10;20.08;;;;;;;8.49;76.95;100123.43;1722187;82;20956;-68
2022/12/27 13:35:24;;;;;;;40.23;22.40;;;;;;;8.49;77.14;100123.94;1727616;82;21119;-68
2022/12/27 13:38:18;;;;;;;39.83;22.00;;;;;;;8.48;77.22;100123.67;1726186;81;20938;-69
2022/12/27 13:41:22;;;;;;;37.88;20.52;;;;;;;8.45;77.33;100127.63;1703351;82;21646;-69
2022/12/27 13:44:09;;;;;;;42.23;23.85;;;;;;;8.44;77.47;100132.16;1720749;81;21044;-69
2022/12/27 13:47:12;;;;;;;42.38;23.20;;;;;;;8.44;77.55;100127.37;1726836;82;21242;-69
2022/12/27 13:50:13;;;;;;;42.90;22.70;;;;;;;8.46;77.62;100129.26;1687023;85;21518;-70